Wye River — WDE3583 — position and weather

sailwx.info

Track history (hours):
 
Tides and Currents Weather Stations Pressure Air Temp Water Temp Dewpoint Dewpoint Depression Visibility Wind Speed Wind Dir Waves Ship Positions

Wye River

More information available from US FCC via Universal Licensing System and Coast Guard Vessel Documentation Center.

Last reported at 2014-Aug-31 00:30 UTC. Time now 2014-Sep-01 23:32 UTC.
Position N 27°36' W 083°04'.

Length 30 m; draft 4.3 m.

Type: Towing. MMSI: 367341190.

Date/timePositionNaut miles runAvg speedWind from/ knotsBaromVisibWave heightAir tempDewpointWater temp
2014-Aug-31 00:30N 27°36' W 083°04'9 9.1
2014-Aug-30 23:33N 27°36' W 082°54'1010.0
2014-Aug-30 22:33N 27°36' W 082°43'6 6.2
2014-Aug-30 21:33N 27°39' W 082°37'9 8.6
2014-Aug-30 20:33N 27°46' W 082°31'9 1.0
2014-Aug-30 11:15N 27°55' W 082°26'0 0.0
2014-Aug-29 18:12N 27°55' W 082°27'8 5.0
2014-Aug-29 16:33N 27°47' W 082°30'8 8.5
2014-Aug-29 15:33N 27°40' W 082°36'8 8.3
2014-Aug-29 14:33N 27°36' W 082°44'2 2.3
2014-Aug-29 13:32N 27°37' W 082°46'6 6.0
2014-Aug-29 12:32N 27°36' W 082°53'  
2014-Aug-21 06:33N 27°36' W 082°60'9 9.2
2014-Aug-21 05:33N 27°37' W 082°49'9 9.0
2014-Aug-21 04:33N 27°37' W 082°39'4 3.7
2014-Aug-21 03:33N 27°40' W 082°36'9 8.8
2014-Aug-21 02:33N 27°47' W 082°31'8 8.3
2014-Aug-21 01:33N 27°55' W 082°27'  
Track history (hours):
 
Tides and Currents Weather Stations Pressure Air Temp Water Temp Dewpoint Dewpoint Depression Visibility Wind Speed Wind Dir Waves Ship Positions

Wye River

More information available from US FCC via Universal Licensing System and Coast Guard Vessel Documentation Center.

Last reported at 2014-Aug-31 00:30 UTC. Time now 2014-Sep-01 23:32 UTC.
Position N 27°36' W 083°04'.

Length 30 m; draft 4.3 m.

Type: Towing. MMSI: 367341190.

Date/timePositionNaut miles runAvg speedWind from/ knotsBaromVisibWave heightAir tempDewpointWater temp
2014-Aug-31 00:30N 27°36' W 083°04'9 9.1
2014-Aug-30 23:33N 27°36' W 082°54'1010.0
2014-Aug-30 22:33N 27°36' W 082°43'6 6.2
2014-Aug-30 21:33N 27°39' W 082°37'9 8.6
2014-Aug-30 20:33N 27°46' W 082°31'9 1.0
2014-Aug-30 11:15N 27°55' W 082°26'0 0.0
2014-Aug-29 18:12N 27°55' W 082°27'8 5.0
2014-Aug-29 16:33N 27°47' W 082°30'8 8.5
2014-Aug-29 15:33N 27°40' W 082°36'8 8.3
2014-Aug-29 14:33N 27°36' W 082°44'2 2.3
2014-Aug-29 13:32N 27°37' W 082°46'6 6.0
2014-Aug-29 12:32N 27°36' W 082°53'  
2014-Aug-21 06:33N 27°36' W 082°60'9 9.2
2014-Aug-21 05:33N 27°37' W 082°49'9 9.0
2014-Aug-21 04:33N 27°37' W 082°39'4 3.7
2014-Aug-21 03:33N 27°40' W 082°36'9 8.8
2014-Aug-21 02:33N 27°47' W 082°31'8 8.3
2014-Aug-21 01:33N 27°55' W 082°27'  

Dump ship's entire track history